sensor_id;sensor_type;location;lat;lon;timestamp;P1;durP1;ratioP1;P2;durP2;ratioP2
21624;SDS011;10974;51.034;3.744;2023-08-31T03:40:38;2.63;;;2.40;;
21624;SDS011;10974;51.034;3.744;2023-08-31T03:43:04;3.40;;;2.33;;
21624;SDS011;10974;51.034;3.744;2023-08-31T03:45:30;4.37;;;2.63;;
21624;SDS011;10974;51.034;3.744;2023-08-31T03:47:56;4.90;;;2.93;;
21624;SDS011;10974;51.034;3.744;2023-08-31T03:50:22;3.63;;;2.53;;
21624;SDS011;10974;51.034;3.744;2023-08-31T03:52:49;8.80;;;3.20;;
21624;SDS011;10974;51.034;3.744;2023-08-31T03:55:15;6.43;;;2.90;;
21624;SDS011;10974;51.034;3.744;2023-08-31T03:57:41;6.40;;;3.13;;
21624;SDS011;10974;51.034;3.744;2023-08-31T04:00:07;3.77;;;3.00;;
21624;SDS011;10974;51.034;3.744;2023-08-31T04:02:38;7.23;;;3.27;;
21624;SDS011;10974;51.034;3.744;2023-08-31T04:05:04;4.53;;;2.60;;
21624;SDS011;10974;51.034;3.744;2023-08-31T04:07:31;4.73;;;2.43;;
21624;SDS011;10974;51.034;3.744;2023-08-31T04:09:57;6.37;;;2.77;;
21624;SDS011;10974;51.034;3.744;2023-08-31T04:12:24;3.13;;;2.40;;
21624;SDS011;10974;51.034;3.744;2023-08-31T04:14:50;4.50;;;3.10;;
21624;SDS011;10974;51.034;3.744;2023-08-31T04:17:16;3.00;;;2.80;;
21624;SDS011;10974;51.034;3.744;2023-08-31T04:19:42;3.47;;;2.40;;
21624;SDS011;10974;51.034;3.744;2023-08-31T04:22:08;5.20;;;2.77;;
21624;SDS011;10974;51.034;3.744;2023-08-31T04:24:34;4.90;;;2.83;;
21624;SDS011;10974;51.034;3.744;2023-08-31T04:27:00;7.27;;;2.70;;
21624;SDS011;10974;51.034;3.744;2023-08-31T04:29:26;2.90;;;2.23;;
21624;SDS011;10974;51.034;3.744;2023-08-31T04:31:52;3.30;;;2.50;;
21624;SDS011;10974;51.034;3.744;2023-08-31T04:34:19;3.63;;;2.37;;
21624;SDS011;10974;51.034;3.744;2023-08-31T04:36:45;5.23;;;2.83;;
21624;SDS011;10974;51.034;3.744;2023-08-31T04:39:11;5.33;;;2.70;;
21624;SDS011;10974;51.034;3.744;2023-08-31T04:41:37;6.77;;;3.50;;
21624;SDS011;10974;51.034;3.744;2023-08-31T04:44:03;4.93;;;2.83;;
21624;SDS011;10974;51.034;3.744;2023-08-31T04:46:30;3.73;;;2.60;;
21624;SDS011;10974;51.034;3.744;2023-08-31T04:48:56;6.20;;;2.97;;
21624;SDS011;10974;51.034;3.744;2023-08-31T04:51:27;7.30;;;2.50;;
21624;SDS011;10974;51.034;3.744;2023-08-31T04:53:53;7.40;;;3.47;;
21624;SDS011;10974;51.034;3.744;2023-08-31T04:56:19;3.93;;;3.03;;
21624;SDS011;10974;51.034;3.744;2023-08-31T04:58:45;7.13;;;3.33;;
21624;SDS011;10974;51.034;3.744;2023-08-31T05:01:11;4.87;;;3.63;;
21624;SDS011;10974;51.034;3.744;2023-08-31T05:03:37;5.77;;;3.30;;
21624;SDS011;10974;51.034;3.744;2023-08-31T05:06:03;5.17;;;3.20;;
21624;SDS011;10974;51.034;3.744;2023-08-31T05:08:30;5.03;;;3.27;;
21624;SDS011;10974;51.034;3.744;2023-08-31T05:10:56;4.93;;;3.37;;
21624;SDS011;10974;51.034;3.744;2023-08-31T05:13:22;5.60;;;2.93;;
21624;SDS011;10974;51.034;3.744;2023-08-31T05:15:48;6.30;;;3.33;;
21624;SDS011;10974;51.034;3.744;2023-08-31T05:18:14;9.83;;;3.00;;
21624;SDS011;10974;51.034;3.744;2023-08-31T05:20:44;7.37;;;3.37;;
21624;SDS011;10974;51.034;3.744;2023-08-31T05:23:10;6.63;;;3.73;;
21624;SDS011;10974;51.034;3.744;2023-08-31T05:25:36;4.50;;;2.90;;
21624;SDS011;10974;51.034;3.744;2023-08-31T05:28:07;5.70;;;3.27;;
21624;SDS011;10974;51.034;3.744;2023-08-31T05:30:33;5.57;;;4.10;;
21624;SDS011;10974;51.034;3.744;2023-08-31T05:33:00;11.00;;;4.13;;
21624;SDS011;10974;51.034;3.744;2023-08-31T05:35:26;6.47;;;3.80;;
21624;SDS011;10974;51.034;3.744;2023-08-31T05:37:52;6.97;;;4.00;;
21624;SDS011;10974;51.034;3.744;2023-08-31T05:40:18;7.37;;;3.50;;
21624;SDS011;10974;51.034;3.744;2023-08-31T05:42:44;8.53;;;3.83;;
21624;SDS011;10974;51.034;3.744;2023-08-31T05:45:10;5.07;;;3.30;;
21624;SDS011;10974;51.034;3.744;2023-08-31T05:47:36;6.00;;;3.30;;
21624;SDS011;10974;51.034;3.744;2023-08-31T05:50:03;8.73;;;3.57;;
21624;SDS011;10974;51.034;3.744;2023-08-31T05:52:29;4.60;;;3.00;;
21624;SDS011;10974;51.034;3.744;2023-08-31T05:54:55;6.90;;;3.50;;
21624;SDS011;10974;51.034;3.744;2023-08-31T05:57:22;7.60;;;3.57;;
21624;SDS011;10974;51.034;3.744;2023-08-31T05:59:48;7.93;;;3.67;;
21624;SDS011;10974;51.034;3.744;2023-08-31T06:02:14;8.57;;;3.70;;
21624;SDS011;10974;51.034;3.744;2023-08-31T06:04:40;5.10;;;3.10;;
21624;SDS011;10974;51.034;3.744;2023-08-31T06:07:06;8.87;;;3.67;;
21624;SDS011;10974;51.034;3.744;2023-08-31T06:09:33;6.70;;;3.53;;
21624;SDS011;10974;51.034;3.744;2023-08-31T06:11:59;6.07;;;3.90;;
21624;SDS011;10974;51.034;3.744;2023-08-31T06:14:25;7.07;;;3.30;;
21624;SDS011;10974;51.034;3.744;2023-08-31T06:16:51;6.80;;;3.60;;
21624;SDS011;10974;51.034;3.744;2023-08-31T06:19:17;5.17;;;3.10;;
21624;SDS011;10974;51.034;3.744;2023-08-31T06:21:43;8.80;;;3.00;;
21624;SDS011;10974;51.034;3.744;2023-08-31T06:24:09;6.63;;;3.30;;
21624;SDS011;10974;51.034;3.744;2023-08-31T06:26:38;6.33;;;3.60;;
21624;SDS011;10974;51.034;3.744;2023-08-31T06:29:04;6.33;;;3.10;;
21624;SDS011;10974;51.034;3.744;2023-08-31T06:31:30;7.00;;;3.37;;
21624;SDS011;10974;51.034;3.744;2023-08-31T06:33:56;7.30;;;3.57;;
21624;SDS011;10974;51.034;3.744;2023-08-31T06:36:23;7.13;;;3.17;;
21624;SDS011;10974;51.034;3.744;2023-08-31T06:38:49;8.50;;;3.70;;
21624;SDS011;10974;51.034;3.744;2023-08-31T06:41:15;5.73;;;3.47;;
21624;SDS011;10974;51.034;3.744;2023-08-31T06:43:41;6.97;;;3.67;;
21624;SDS011;10974;51.034;3.744;2023-08-31T06:46:07;5.40;;;3.53;;
21624;SDS011;10974;51.034;3.744;2023-08-31T06:48:33;5.73;;;2.93;;
21624;SDS011;10974;51.034;3.744;2023-08-31T06:50:59;6.93;;;3.50;;
21624;SDS011;10974;51.034;3.744;2023-08-31T06:53:29;5.30;;;3.20;;
21624;SDS011;10974;51.034;3.744;2023-08-31T06:55:56;6.17;;;2.90;;
21624;SDS011;10974;51.034;3.744;2023-08-31T06:58:22;5.30;;;3.30;;
21624;SDS011;10974;51.034;3.744;2023-08-31T07:00:48;6.20;;;3.40;;
21624;SDS011;10974;51.034;3.744;2023-08-31T07:03:14;7.43;;;3.80;;
21624;SDS011;10974;51.034;3.744;2023-08-31T07:05:41;8.90;;;3.20;;
21624;SDS011;10974;51.034;3.744;2023-08-31T07:08:07;6.83;;;4.10;;
21624;SDS011;10974;51.034;3.744;2023-08-31T07:10:34;7.20;;;3.43;;
21624;SDS011;10974;51.034;3.744;2023-08-31T07:13:03;4.73;;;3.00;;
21624;SDS011;10974;51.034;3.744;2023-08-31T07:15:30;8.37;;;3.37;;
21624;SDS011;10974;51.034;3.744;2023-08-31T07:17:56;9.27;;;3.60;;
21624;SDS011;10974;51.034;3.744;2023-08-31T07:20:22;7.90;;;3.70;;
21624;SDS011;10974;51.034;3.744;2023-08-31T07:22:48;8.20;;;3.93;;
21624;SDS011;10974;51.034;3.744;2023-08-31T07:25:14;11.00;;;4.13;;
21624;SDS011;10974;51.034;3.744;2023-08-31T07:27:40;10.67;;;4.50;;
21624;SDS011;10974;51.034;3.744;2023-08-31T07:30:06;9.13;;;4.20;;
21624;SDS011;10974;51.034;3.744;2023-08-31T07:32:33;9.53;;;4.10;;
21624;SDS011;10974;51.034;3.744;2023-08-31T07:34:59;6.87;;;3.67;;
21624;SDS011;10974;51.034;3.744;2023-08-31T07:37:25;9.83;;;3.90;;
21624;SDS011;10974;51.034;3.744;2023-08-31T07:39:51;8.47;;;4.50;;
21624;SDS011;10974;51.034;3.744;2023-08-31T07:42:17;9.40;;;3.50;;
21624;SDS011;10974;51.034;3.744;2023-08-31T07:44:43;10.40;;;4.10;;
21624;SDS011;10974;51.034;3.744;2023-08-31T07:47:09;8.90;;;4.30;;
21624;SDS011;10974;51.034;3.744;2023-08-31T07:49:35;9.33;;;3.93;;
21624;SDS011;10974;51.034;3.744;2023-08-31T07:52:01;9.83;;;3.53;;
21624;SDS011;10974;51.034;3.744;2023-08-31T07:54:28;7.97;;;3.87;;
21624;SDS011;10974;51.034;3.744;2023-08-31T07:56:54;9.37;;;4.47;;
21624;SDS011;10974;51.034;3.744;2023-08-31T07:59:20;7.90;;;4.40;;
21624;SDS011;10974;51.034;3.744;2023-08-31T08:01:47;6.00;;;3.80;;
21624;SDS011;10974;51.034;3.744;2023-08-31T08:04:13;9.70;;;4.10;;
21624;SDS011;10974;51.034;3.744;2023-08-31T08:06:39;8.00;;;4.43;;
21624;SDS011;10974;51.034;3.744;2023-08-31T08:09:05;10.27;;;3.97;;
21624;SDS011;10974;51.034;3.744;2023-08-31T08:11:31;7.70;;;4.00;;
21624;SDS011;10974;51.034;3.744;2023-08-31T08:13:57;9.90;;;4.27;;
21624;SDS011;10974;51.034;3.744;2023-08-31T08:16:23;7.97;;;4.37;;
21624;SDS011;10974;51.034;3.744;2023-08-31T08:18:50;8.63;;;4.23;;
21624;SDS011;10974;51.034;3.744;2023-08-31T08:21:16;10.27;;;4.20;;
21624;SDS011;10974;51.034;3.744;2023-08-31T08:23:42;5.93;;;3.90;;
21624;SDS011;10974;51.034;3.744;2023-08-31T08:26:08;10.03;;;4.70;;
21624;SDS011;10974;51.034;3.744;2023-08-31T08:28:34;8.33;;;4.40;;
21624;SDS011;10974;51.034;3.744;2023-08-31T08:31:01;9.63;;;4.77;;
21624;SDS011;10974;51.034;3.744;2023-08-31T08:33:30;6.43;;;4.20;;
21624;SDS011;10974;51.034;3.744;2023-08-31T08:35:57;9.33;;;4.17;;
21624;SDS011;10974;51.034;3.744;2023-08-31T08:38:23;7.80;;;4.20;;
21624;SDS011;10974;51.034;3.744;2023-08-31T08:40:49;13.00;;;4.67;;
21624;SDS011;10974;51.034;3.744;2023-08-31T08:43:15;7.40;;;4.70;;
21624;SDS011;10974;51.034;3.744;2023-08-31T08:45:42;8.00;;;3.83;;
21624;SDS011;10974;51.034;3.744;2023-08-31T08:48:11;6.63;;;3.97;;
21624;SDS011;10974;51.034;3.744;2023-08-31T08:50:38;11.90;;;4.20;;
21624;SDS011;10974;51.034;3.744;2023-08-31T08:53:04;9.00;;;4.13;;
21624;SDS011;10974;51.034;3.744;2023-08-31T08:55:32;11.03;;;4.33;;
21624;SDS011;10974;51.034;3.744;2023-08-31T08:57:58;9.00;;;4.07;;
21624;SDS011;10974;51.034;3.744;2023-08-31T09:00:25;6.73;;;4.00;;
21624;SDS011;10974;51.034;3.744;2023-08-31T09:02:52;6.80;;;4.37;;
21624;SDS011;10974;51.034;3.744;2023-08-31T09:05:18;5.73;;;3.90;;
21624;SDS011;10974;51.034;3.744;2023-08-31T09:08:00;9.23;;;4.30;;
21624;SDS011;10974;51.034;3.744;2023-08-31T09:13:27;6.70;;;3.70;;
21624;SDS011;10974;51.034;3.744;2023-08-31T09:15:56;7.47;;;4.00;;
21624;SDS011;10974;51.034;3.744;2023-08-31T09:20:48;7.03;;;4.30;;
21624;SDS011;10974;51.034;3.744;2023-08-31T09:23:15;5.30;;;3.97;;
21624;SDS011;10974;51.034;3.744;2023-08-31T09:25:42;8.10;;;4.17;;
21624;SDS011;10974;51.034;3.744;2023-08-31T09:28:09;6.13;;;3.73;;
21624;SDS011;10974;51.034;3.744;2023-08-31T09:30:36;10.07;;;4.20;;
21624;SDS011;10974;51.034;3.744;2023-08-31T09:33:05;8.90;;;4.23;;
21624;SDS011;10974;51.034;3.744;2023-08-31T09:35:31;7.30;;;4.13;;
21624;SDS011;10974;51.034;3.744;2023-08-31T09:37:57;5.63;;;3.63;;
21624;SDS011;10974;51.034;3.744;2023-08-31T09:40:23;8.20;;;4.37;;
21624;SDS011;10974;51.034;3.744;2023-08-31T09:42:49;8.60;;;4.40;;
21624;SDS011;10974;51.034;3.744;2023-08-31T09:45:24;6.40;;;4.00;;
21624;SDS011;10974;51.034;3.744;2023-08-31T09:47:51;8.33;;;4.00;;
21624;SDS011;10974;51.034;3.744;2023-08-31T09:50:17;5.40;;;3.73;;
21624;SDS011;10974;51.034;3.744;2023-08-31T09:52:44;10.83;;;4.53;;
21624;SDS011;10974;51.034;3.744;2023-08-31T09:55:11;7.63;;;4.30;;
21624;SDS011;10974;51.034;3.744;2023-08-31T09:57:38;9.70;;;3.73;;
21624;SDS011;10974;51.034;3.744;2023-08-31T10:00:04;8.00;;;3.60;;
21624;SDS011;10974;51.034;3.744;2023-08-31T10:02:32;8.83;;;4.10;;
21624;SDS011;10974;51.034;3.744;2023-08-31T10:04:58;5.87;;;3.90;;
21624;SDS011;10974;51.034;3.744;2023-08-31T10:07:24;6.80;;;3.93;;
21624;SDS011;10974;51.034;3.744;2023-08-31T10:09:51;7.00;;;3.57;;
21624;SDS011;10974;51.034;3.744;2023-08-31T10:12:17;7.80;;;3.70;;
21624;SDS011;10974;51.034;3.744;2023-08-31T10:14:44;7.97;;;3.40;;
21624;SDS011;10974;51.034;3.744;2023-08-31T10:17:12;9.93;;;3.73;;
21624;SDS011;10974;51.034;3.744;2023-08-31T10:19:38;13.50;;;3.83;;
21624;SDS011;10974;51.034;3.744;2023-08-31T10:22:05;8.57;;;4.07;;
21624;SDS011;10974;51.034;3.744;2023-08-31T10:25:14;7.40;;;3.50;;
21624;SDS011;10974;51.034;3.744;2023-08-31T10:27:21;6.83;;;3.73;;
21624;SDS011;10974;51.034;3.744;2023-08-31T10:29:47;10.47;;;3.70;;
21624;SDS011;10974;51.034;3.744;2023-08-31T10:32:17;14.53;;;4.10;;
21624;SDS011;10974;51.034;3.744;2023-08-31T10:35:05;8.47;;;3.90;;
21624;SDS011;10974;51.034;3.744;2023-08-31T10:37:31;8.47;;;3.83;;
21624;SDS011;10974;51.034;3.744;2023-08-31T10:40:07;8.77;;;3.50;;
21624;SDS011;10974;51.034;3.744;2023-08-31T10:42:41;6.80;;;3.70;;
21624;SDS011;10974;51.034;3.744;2023-08-31T10:45:07;7.10;;;3.30;;
21624;SDS011;10974;51.034;3.744;2023-08-31T10:47:37;7.83;;;3.20;;
21624;SDS011;10974;51.034;3.744;2023-08-31T10:50:19;4.47;;;2.87;;
21624;SDS011;10974;51.034;3.744;2023-08-31T10:52:46;4.63;;;2.40;;
21624;SDS011;10974;51.034;3.744;2023-08-31T10:55:12;7.27;;;2.73;;
21624;SDS011;10974;51.034;3.744;2023-08-31T10:57:39;2.60;;;2.20;;
21624;SDS011;10974;51.034;3.744;2023-08-31T11:00:06;3.77;;;2.30;;
21624;SDS011;10974;51.034;3.744;2023-08-31T11:02:36;5.63;;;3.13;;
21624;SDS011;10974;51.034;3.744;2023-08-31T11:05:12;5.57;;;2.77;;
21624;SDS011;10974;51.034;3.744;2023-08-31T11:07:40;5.83;;;2.67;;
21624;SDS011;10974;51.034;3.744;2023-08-31T11:10:15;6.30;;;2.80;;
21624;SDS011;10974;51.034;3.744;2023-08-31T11:12:43;5.97;;;2.80;;
21624;SDS011;10974;51.034;3.744;2023-08-31T11:15:11;4.13;;;2.83;;
21624;SDS011;10974;51.034;3.744;2023-08-31T11:17:37;5.30;;;2.83;;
21624;SDS011;10974;51.034;3.744;2023-08-31T11:20:05;5.00;;;2.77;;
21624;SDS011;10974;51.034;3.744;2023-08-31T11:22:34;5.57;;;2.27;;
21624;SDS011;10974;51.034;3.744;2023-08-31T11:25:03;4.47;;;2.33;;
21624;SDS011;10974;51.034;3.744;2023-08-31T11:27:30;4.67;;;2.40;;
21624;SDS011;10974;51.034;3.744;2023-08-31T11:29:56;7.53;;;2.43;;
21624;SDS011;10974;51.034;3.744;2023-08-31T11:32:25;3.10;;;2.17;;
21624;SDS011;10974;51.034;3.744;2023-08-31T11:34:51;4.30;;;2.40;;
21624;SDS011;10974;51.034;3.744;2023-08-31T11:37:17;3.90;;;2.37;;
21624;SDS011;10974;51.034;3.744;2023-08-31T11:39:48;5.63;;;2.10;;
21624;SDS011;10974;51.034;3.744;2023-08-31T11:42:15;3.73;;;2.63;;
21624;SDS011;10974;51.034;3.744;2023-08-31T11:44:41;6.27;;;2.30;;
21624;SDS011;10974;51.034;3.744;2023-08-31T11:47:07;3.50;;;2.00;;
21624;SDS011;10974;51.034;3.744;2023-08-31T11:49:34;4.40;;;2.10;;
21624;SDS011;10974;51.034;3.744;2023-08-31T11:52:00;3.67;;;2.07;;
21624;SDS011;10974;51.034;3.744;2023-08-31T11:54:26;4.70;;;2.23;;
21624;SDS011;10974;51.034;3.744;2023-08-31T11:56:52;4.23;;;2.17;;
21624;SDS011;10974;51.034;3.744;2023-08-31T11:59:18;6.03;;;2.40;;
21624;SDS011;10974;51.034;3.744;2023-08-31T12:01:47;3.93;;;2.30;;
21624;SDS011;10974;51.034;3.744;2023-08-31T12:04:20;6.73;;;2.37;;
21624;SDS011;10974;51.034;3.744;2023-08-31T12:06:50;3.83;;;2.03;;
21624;SDS011;10974;51.034;3.744;2023-08-31T12:09:17;7.10;;;2.10;;
21624;SDS011;10974;51.034;3.744;2023-08-31T12:11:50;4.13;;;2.00;;
21624;SDS011;10974;51.034;3.744;2023-08-31T12:14:26;2.93;;;2.07;;
21624;SDS011;10974;51.034;3.744;2023-08-31T12:17:00;4.60;;;1.80;;
21624;SDS011;10974;51.034;3.744;2023-08-31T12:19:28;4.53;;;1.90;;
21624;SDS011;10974;51.034;3.744;2023-08-31T12:21:54;4.50;;;2.17;;
21624;SDS011;10974;51.034;3.744;2023-08-31T12:24:21;3.13;;;1.87;;
21624;SDS011;10974;51.034;3.744;2023-08-31T12:26:48;5.10;;;2.10;;
21624;SDS011;10974;51.034;3.744;2023-08-31T12:29:14;6.47;;;2.80;;
21624;SDS011;10974;51.034;3.744;2023-08-31T12:31:40;3.70;;;2.30;;
21624;SDS011;10974;51.034;3.744;2023-08-31T12:34:06;7.97;;;2.20;;
21624;SDS011;10974;51.034;3.744;2023-08-31T12:36:33;7.20;;;2.33;;
21624;SDS011;10974;51.034;3.744;2023-08-31T12:39:01;5.70;;;2.63;;
21624;SDS011;10974;51.034;3.744;2023-08-31T12:41:31;6.00;;;2.83;;
21624;SDS011;10974;51.034;3.744;2023-08-31T12:43:57;7.70;;;2.23;;
21624;SDS011;10974;51.034;3.744;2023-08-31T12:46:23;9.23;;;2.53;;
21624;SDS011;10974;51.034;3.744;2023-08-31T12:48:49;4.67;;;2.37;;
21624;SDS011;10974;51.034;3.744;2023-08-31T12:51:16;4.33;;;1.90;;
21624;SDS011;10974;51.034;3.744;2023-08-31T12:53:43;5.33;;;2.30;;
21624;SDS011;10974;51.034;3.744;2023-08-31T12:56:09;6.87;;;2.37;;
21624;SDS011;10974;51.034;3.744;2023-08-31T12:58:35;3.23;;;1.90;;
21624;SDS011;10974;51.034;3.744;2023-08-31T13:01:01;3.63;;;2.10;;
21624;SDS011;10974;51.034;3.744;2023-08-31T13:03:28;5.80;;;2.47;;
21624;SDS011;10974;51.034;3.744;2023-08-31T13:05:54;5.67;;;2.00;;
21624;SDS011;10974;51.034;3.744;2023-08-31T13:08:20;5.83;;;2.30;;
21624;SDS011;10974;51.034;3.744;2023-08-31T13:10:52;3.73;;;1.73;;
21624;SDS011;10974;51.034;3.744;2023-08-31T13:13:19;4.30;;;1.80;;
21624;SDS011;10974;51.034;3.744;2023-08-31T13:15:48;7.07;;;1.97;;
21624;SDS011;10974;51.034;3.744;2023-08-31T13:18:15;5.60;;;2.10;;
21624;SDS011;10974;51.034;3.744;2023-08-31T13:20:48;3.10;;;2.00;;
21624;SDS011;10974;51.034;3.744;2023-08-31T13:23:14;3.33;;;2.07;;
21624;SDS011;10974;51.034;3.744;2023-08-31T13:25:40;4.23;;;2.17;;
21624;SDS011;10974;51.034;3.744;2023-08-31T13:28:06;4.83;;;2.40;;
21624;SDS011;10974;51.034;3.744;2023-08-31T13:30:32;4.57;;;2.23;;
21624;SDS011;10974;51.034;3.744;2023-08-31T13:32:58;5.03;;;2.17;;
21624;SDS011;10974;51.034;3.744;2023-08-31T13:35:24;5.10;;;2.37;;
21624;SDS011;10974;51.034;3.744;2023-08-31T13:37:50;5.87;;;2.27;;
21624;SDS011;10974;51.034;3.744;2023-08-31T13:40:17;4.37;;;2.10;;
21624;SDS011;10974;51.034;3.744;2023-08-31T13:42:56;7.23;;;2.87;;
21624;SDS011;10974;51.034;3.744;2023-08-31T13:45:26;5.70;;;2.03;;
21624;SDS011;10974;51.034;3.744;2023-08-31T13:47:52;4.63;;;2.27;;
21624;SDS011;10974;51.034;3.744;2023-08-31T13:50:18;7.87;;;2.40;;
21624;SDS011;10974;51.034;3.744;2023-08-31T13:52:44;7.53;;;2.17;;
21624;SDS011;10974;51.034;3.744;2023-08-31T13:55:11;3.90;;;2.00;;
21624;SDS011;10974;51.034;3.744;2023-08-31T13:57:38;5.43;;;2.47;;
21624;SDS011;10974;51.034;3.744;2023-08-31T14:00:04;6.27;;;2.57;;
21624;SDS011;10974;51.034;3.744;2023-08-31T14:02:33;7.63;;;2.33;;
21624;SDS011;10974;51.034;3.744;2023-08-31T14:05:00;6.57;;;2.47;;
21624;SDS011;10974;51.034;3.744;2023-08-31T14:07:27;9.00;;;2.63;;
21624;SDS011;10974;51.034;3.744;2023-08-31T14:09:53;6.17;;;2.10;;
21624;SDS011;10974;51.034;3.744;2023-08-31T14:12:19;6.90;;;2.60;;
21624;SDS011;10974;51.034;3.744;2023-08-31T14:14:46;5.83;;;2.23;;
21624;SDS011;10974;51.034;3.744;2023-08-31T14:17:12;12.57;;;2.63;;
21624;SDS011;10974;51.034;3.744;2023-08-31T14:19:38;5.53;;;2.43;;
21624;SDS011;10974;51.034;3.744;2023-08-31T14:22:04;7.33;;;2.47;;
21624;SDS011;10974;51.034;3.744;2023-08-31T14:24:31;6.20;;;2.80;;
21624;SDS011;10974;51.034;3.744;2023-08-31T14:26:57;10.50;;;3.07;;
21624;SDS011;10974;51.034;3.744;2023-08-31T14:29:23;7.17;;;2.80;;
21624;SDS011;10974;51.034;3.744;2023-08-31T14:31:49;7.47;;;2.50;;
21624;SDS011;10974;51.034;3.744;2023-08-31T14:34:17;7.73;;;3.03;;
21624;SDS011;10974;51.034;3.744;2023-08-31T14:36:43;9.00;;;3.00;;
21624;SDS011;10974;51.034;3.744;2023-08-31T14:39:09;9.13;;;3.30;;
21624;SDS011;10974;51.034;3.744;2023-08-31T14:41:35;6.77;;;3.00;;
21624;SDS011;10974;51.034;3.744;2023-08-31T14:44:01;5.47;;;2.60;;
21624;SDS011;10974;51.034;3.744;2023-08-31T14:46:27;6.77;;;3.20;;
21624;SDS011;10974;51.034;3.744;2023-08-31T14:48:53;6.07;;;3.00;;
21624;SDS011;10974;51.034;3.744;2023-08-31T14:51:19;6.03;;;2.87;;
21624;SDS011;10974;51.034;3.744;2023-08-31T14:53:45;7.50;;;3.80;;
21624;SDS011;10974;51.034;3.744;2023-08-31T14:56:12;5.13;;;2.67;;
21624;SDS011;10974;51.034;3.744;2023-08-31T14:58:38;5.50;;;2.93;;
21624;SDS011;10974;51.034;3.744;2023-08-31T15:01:04;9.00;;;3.00;;
21624;SDS011;10974;51.034;3.744;2023-08-31T15:03:30;6.53;;;2.80;;
21624;SDS011;10974;51.034;3.744;2023-08-31T15:05:56;8.70;;;3.63;;
21624;SDS011;10974;51.034;3.744;2023-08-31T15:08:34;8.37;;;3.17;;
21624;SDS011;10974;51.034;3.744;2023-08-31T15:11:00;8.80;;;3.33;;
21624;SDS011;10974;51.034;3.744;2023-08-31T15:13:27;6.83;;;3.20;;
21624;SDS011;10974;51.034;3.744;2023-08-31T15:15:53;6.90;;;3.10;;
21624;SDS011;10974;51.034;3.744;2023-08-31T15:18:19;7.60;;;3.00;;
21624;SDS011;10974;51.034;3.744;2023-08-31T15:20:46;8.77;;;2.90;;
21624;SDS011;10974;51.034;3.744;2023-08-31T15:23:13;8.13;;;3.10;;
21624;SDS011;10974;51.034;3.744;2023-08-31T15:25:39;8.37;;;3.30;;
21624;SDS011;10974;51.034;3.744;2023-08-31T15:28:05;9.10;;;3.00;;
21624;SDS011;10974;51.034;3.744;2023-08-31T15:30:31;7.63;;;2.90;;
21624;SDS011;10974;51.034;3.744;2023-08-31T15:33:03;10.90;;;3.63;;
21624;SDS011;10974;51.034;3.744;2023-08-31T15:35:29;5.83;;;3.40;;
21624;SDS011;10974;51.034;3.744;2023-08-31T15:37:56;6.73;;;3.20;;
21624;SDS011;10974;51.034;3.744;2023-08-31T15:40:22;6.27;;;3.30;;
21624;SDS011;10974;51.034;3.744;2023-08-31T15:42:48;9.33;;;3.43;;
21624;SDS011;10974;51.034;3.744;2023-08-31T15:45:14;11.27;;;3.23;;
21624;SDS011;10974;51.034;3.744;2023-08-31T15:47:40;9.30;;;3.20;;
21624;SDS011;10974;51.034;3.744;2023-08-31T15:50:06;12.03;;;3.97;;
21624;SDS011;10974;51.034;3.744;2023-08-31T15:52:32;5.30;;;2.97;;
21624;SDS011;10974;51.034;3.744;2023-08-31T15:54:59;7.73;;;3.07;;
21624;SDS011;10974;51.034;3.744;2023-08-31T15:57:26;9.37;;;3.00;;
21624;SDS011;10974;51.034;3.744;2023-08-31T15:59:52;10.33;;;2.43;;
21624;SDS011;10974;51.034;3.744;2023-08-31T16:02:23;7.47;;;2.67;;
21624;SDS011;10974;51.034;3.744;2023-08-31T16:04:49;5.73;;;2.37;;
21624;SDS011;10974;51.034;3.744;2023-08-31T16:07:15;4.20;;;2.43;;
21624;SDS011;10974;51.034;3.744;2023-08-31T16:09:41;4.27;;;2.23;;
21624;SDS011;10974;51.034;3.744;2023-08-31T16:12:07;5.90;;;2.37;;
21624;SDS011;10974;51.034;3.744;2023-08-31T16:14:33;2.70;;;1.93;;
21624;SDS011;10974;51.034;3.744;2023-08-31T16:17:01;4.60;;;2.47;;
21624;SDS011;10974;51.034;3.744;2023-08-31T16:19:27;4.40;;;2.07;;
21624;SDS011;10974;51.034;3.744;2023-08-31T16:21:53;2.93;;;1.87;;
21624;SDS011;10974;51.034;3.744;2023-08-31T16:24:19;4.30;;;1.90;;
21624;SDS011;10974;51.034;3.744;2023-08-31T16:26:45;2.00;;;1.60;;
21624;SDS011;10974;51.034;3.744;2023-08-31T16:29:11;3.13;;;1.57;;
21624;SDS011;10974;51.034;3.744;2023-08-31T16:31:37;2.77;;;1.70;;
21624;SDS011;10974;51.034;3.744;2023-08-31T16:34:04;4.20;;;1.70;;
21624;SDS011;10974;51.034;3.744;2023-08-31T16:36:30;4.50;;;2.07;;
21624;SDS011;10974;51.034;3.744;2023-08-31T16:38:57;3.17;;;2.17;;
21624;SDS011;10974;51.034;3.744;2023-08-31T16:41:23;5.30;;;2.10;;
21624;SDS011;10974;51.034;3.744;2023-08-31T16:43:49;7.97;;;2.30;;
21624;SDS011;10974;51.034;3.744;2023-08-31T16:46:18;3.10;;;1.97;;
21624;SDS011;10974;51.034;3.744;2023-08-31T16:48:44;7.30;;;2.23;;
21624;SDS011;10974;51.034;3.744;2023-08-31T16:51:10;6.57;;;1.90;;
21624;SDS011;10974;51.034;3.744;2023-08-31T16:53:36;8.50;;;2.07;;
21624;SDS011;10974;51.034;3.744;2023-08-31T16:56:04;3.43;;;2.00;;
21624;SDS011;10974;51.034;3.744;2023-08-31T16:58:30;6.30;;;2.33;;
21624;SDS011;10974;51.034;3.744;2023-08-31T17:00:56;7.60;;;2.00;;
21624;SDS011;10974;51.034;3.744;2023-08-31T17:03:23;4.13;;;2.00;;
21624;SDS011;10974;51.034;3.744;2023-08-31T17:05:52;4.90;;;2.13;;
21624;SDS011;10974;51.034;3.744;2023-08-31T17:08:18;6.30;;;2.27;;
21624;SDS011;10974;51.034;3.744;2023-08-31T17:10:44;5.67;;;2.60;;
21624;SDS011;10974;51.034;3.744;2023-08-31T17:13:10;5.10;;;2.20;;
21624;SDS011;10974;51.034;3.744;2023-08-31T17:15:36;3.47;;;2.07;;
21624;SDS011;10974;51.034;3.744;2023-08-31T17:18:02;4.83;;;2.00;;
21624;SDS011;10974;51.034;3.744;2023-08-31T17:20:28;2.60;;;1.70;;
21624;SDS011;10974;51.034;3.744;2023-08-31T17:22:57;2.10;;;1.40;;
21624;SDS011;10974;51.034;3.744;2023-08-31T17:25:25;5.63;;;2.07;;
21624;SDS011;10974;51.034;3.744;2023-08-31T17:27:51;5.37;;;2.00;;
21624;SDS011;10974;51.034;3.744;2023-08-31T17:30:17;7.30;;;2.87;;
21624;SDS011;10974;51.034;3.744;2023-08-31T17:32:43;8.03;;;2.63;;
21624;SDS011;10974;51.034;3.744;2023-08-31T17:35:09;9.20;;;2.00;;
21624;SDS011;10974;51.034;3.744;2023-08-31T17:37:35;5.20;;;2.00;;
21624;SDS011;10974;51.034;3.744;2023-08-31T17:40:02;10.73;;;2.37;;
21624;SDS011;10974;51.034;3.744;2023-08-31T17:42:32;10.73;;;2.50;;
21624;SDS011;10974;51.034;3.744;2023-08-31T17:45:01;4.13;;;2.40;;
21624;SDS011;10974;51.034;3.744;2023-08-31T17:47:29;3.27;;;2.10;;
21624;SDS011;10974;51.034;3.744;2023-08-31T17:49:55;6.70;;;2.33;;
21624;SDS011;10974;51.034;3.744;2023-08-31T17:52:21;5.27;;;1.83;;
21624;SDS011;10974;51.034;3.744;2023-08-31T17:54:47;6.77;;;2.13;;
21624;SDS011;10974;51.034;3.744;2023-08-31T17:57:13;6.77;;;2.43;;
21624;SDS011;10974;51.034;3.744;2023-08-31T17:59:39;5.43;;;2.00;;
21624;SDS011;10974;51.034;3.744;2023-08-31T18:02:06;3.63;;;2.03;;
21624;SDS011;10974;51.034;3.744;2023-08-31T18:04:32;5.57;;;2.00;;
21624;SDS011;10974;51.034;3.744;2023-08-31T18:06:58;5.83;;;2.10;;
21624;SDS011;10974;51.034;3.744;2023-08-31T18:09:25;2.90;;;1.57;;
21624;SDS011;10974;51.034;3.744;2023-08-31T18:11:54;5.63;;;2.00;;
21624;SDS011;10974;51.034;3.744;2023-08-31T18:14:20;3.80;;;1.70;;
21624;SDS011;10974;51.034;3.744;2023-08-31T18:16:46;6.30;;;2.53;;
21624;SDS011;10974;51.034;3.744;2023-08-31T18:19:13;8.63;;;3.10;;
21624;SDS011;10974;51.034;3.744;2023-08-31T18:21:39;2.77;;;1.53;;
21624;SDS011;10974;51.034;3.744;2023-08-31T18:24:05;3.00;;;1.63;;
21624;SDS011;10974;51.034;3.744;2023-08-31T18:26:31;3.50;;;1.80;;
21624;SDS011;10974;51.034;3.744;2023-08-31T18:28:57;2.30;;;1.47;;
21624;SDS011;10974;51.034;3.744;2023-08-31T18:31:23;2.40;;;1.57;;